Main page
METAR-TAF:

METAR-TAF

Airports :

Zahedan Airport

Zahedan, Iran

latitude: 29-28N, longitude: 060-53E, elevation: 1370 m

Current weather observation

The report was made 29 minutes ago, at 18:00 UTC
Wind 12 kt from the Northeast
Temperature 27°C
Humidity 26%
Pressure 1017 hPa
Visibility 10 km or more
no clouds below 1500 m and no cumulonimbus

METAR: OIZH 251800Z 04012KT CAVOK 27/06 Q1017 A3003

Time: 22:59 (18:29 UTC)

Forecast

The report was made 59 minutes ago, at 17:30 UTC
Forecast valid from 25 at 18 UTC to 26 at 24 UTC
Wind 18 kt from the North/Northeast
Visibility: 4000 m
sand,

TAF: OIZH 251730Z 2518/2624 03008KT 8000 NSC TEMP0 2608/2612 03018KT 4000 SA

Weather observations and forecasts of more than 4000 airports (METAR and TAF reports).

The available stations are represented by yellow and red dots on the map.

Hover mouse over dot to see the name of the station.

Then click to see weather observations and forecasts.

To change the map : click on the green buttons with a black cross to zoom in, on the green button with a dash to zoom out, or on the green arrows for adjacent maps.


METAR-TAF: